Time;durP1;ratioP1;P1;durP2;ratioP2;P2;SDS_P1;SDS_P2;PMS_P1;PMS_P2;Temp;Humidity;BMP_temperature;BMP_pressure;BME280_temperature;BME280_humidity;BME280_pressure;Samples;Min_cycle;Max_cycle;Signal;HPM_P1;HPM_P2
2023/09/01 04:22:32;;;;;;;11.07;3.50;;;;;;;16.09;100.00;99973.94;5089449;28;20389;-71
2023/09/01 04:24:57;;;;;;;6.50;3.50;;;;;;;16.12;100.00;99975.38;5093631;28;20035;-72
2023/09/01 04:27:23;;;;;;;7.03;3.70;;;;;;;16.14;100.00;99970.59;5108327;28;20143;-72
2023/09/01 04:29:48;;;;;;;7.78;2.92;;;;;;;16.15;100.00;99972.25;5107632;28;20371;-72
2023/09/01 04:32:14;;;;;;;7.78;3.75;;;;;;;16.18;100.00;99971.84;5108445;28;20432;-72
2023/09/01 04:34:39;;;;;;;4.63;3.00;;;;;;;16.17;100.00;99972.84;5108280;28;20063;-72
2023/09/01 04:37:05;;;;;;;8.27;2.70;;;;;;;16.23;100.00;99977.38;5108271;28;20036;-73
2023/09/01 04:39:30;;;;;;;5.00;2.95;;;;;;;16.29;100.00;99984.56;5091005;28;20038;-73
2023/09/01 04:41:56;;;;;;;5.22;2.60;;;;;;;16.30;100.00;99983.53;5106026;28;20036;-72
2023/09/01 04:44:21;;;;;;;5.03;2.45;;;;;;;16.34;100.00;99984.75;5087898;28;20043;-72
2023/09/01 04:46:47;;;;;;;4.65;2.45;;;;;;;16.39;100.00;99992.16;5087644;28;20032;-72
2023/09/01 04:49:12;;;;;;;7.30;2.88;;;;;;;16.42;100.00;99991.72;5087433;28;20040;-72
2023/09/01 04:51:39;;;;;;;3.63;2.50;;;;;;;16.45;100.00;99997.50;5087713;28;20032;-73
2023/09/01 04:54:06;;;;;;;4.63;2.30;;;;;;;16.47;100.00;99998.09;5088810;28;20047;-73
2023/09/01 04:56:32;;;;;;;4.13;2.33;;;;;;;16.60;100.00;100007.09;5071020;28;20037;-72
2023/09/01 04:58:58;;;;;;;7.15;3.42;;;;;;;16.60;100.00;100010.63;5087255;28;20052;-72
2023/09/01 05:01:24;;;;;;;3.60;2.00;;;;;;;16.65;100.00;100010.78;5087149;28;20045;-73
2023/09/01 05:03:49;;;;;;;7.25;2.38;;;;;;;16.66;100.00;100012.44;5087426;28;20044;-72
2023/09/01 05:06:14;;;;;;;3.70;2.08;;;;;;;16.71;100.00;100020.72;5087324;28;20043;-72
2023/09/01 05:08:40;;;;;;;3.38;2.38;;;;;;;16.74;100.00;100022.13;5087195;28;20040;-73
2023/09/01 05:11:06;;;;;;;5.40;3.03;;;;;;;16.74;100.00;100030.19;5087073;28;20123;-72
2023/09/01 05:13:31;;;;;;;3.67;2.28;;;;;;;16.69;100.00;100030.84;5087151;28;20059;-73
2023/09/01 05:15:57;;;;;;;6.13;3.78;;;;;;;16.58;100.00;100030.72;5087081;28;20060;-72
2023/09/01 05:18:22;;;;;;;5.07;2.25;;;;;;;16.51;100.00;100033.44;5087374;28;20384;-71
2023/09/01 05:20:50;;;;;;;9.48;2.47;;;;;;;16.45;100.00;100035.13;5086586;28;20487;-72
2023/09/01 05:23:15;;;;;;;7.18;3.33;;;;;;;16.42;100.00;100032.84;5087020;28;20039;-72
2023/09/01 05:25:41;;;;;;;3.45;1.95;;;;;;;16.38;100.00;100041.59;5088245;28;20036;-71
2023/09/01 05:28:06;;;;;;;3.30;2.20;;;;;;;16.37;100.00;100038.09;5086866;28;20040;-72
2023/09/01 05:30:31;;;;;;;4.18;1.90;;;;;;;16.38;100.00;100034.34;5086677;28;20109;-72
2023/09/01 05:32:57;;;;;;;5.80;2.22;;;;;;;16.39;100.00;100033.31;5078674;28;20040;-72
2023/09/01 05:35:23;;;;;;;3.85;1.90;;;;;;;16.35;100.00;100037.44;5073228;28;20521;-71
2023/09/01 05:37:49;;;;;;;5.50;2.33;;;;;;;16.39;100.00;100044.06;5073213;28;20038;-72
2023/09/01 05:40:17;;;;;;;3.75;1.95;;;;;;;16.40;100.00;100037.63;5072965;28;20036;-72
2023/09/01 05:42:42;;;;;;;3.00;1.77;;;;;;;16.40;100.00;100040.31;5073051;28;20475;-73
2023/09/01 05:45:08;;;;;;;7.13;2.13;;;;;;;16.43;100.00;100039.06;5072854;28;20052;-71
2023/09/01 05:47:34;;;;;;;5.13;2.03;;;;;;;16.42;100.00;100038.22;5073087;28;20043;-72
2023/09/01 05:49:59;;;;;;;2.53;1.65;;;;;;;16.44;100.00;100041.56;5072830;28;20094;-71
2023/09/01 05:52:25;;;;;;;3.22;1.60;;;;;;;16.49;100.00;100041.69;5074256;28;20035;-73
2023/09/01 05:54:51;;;;;;;3.25;2.20;;;;;;;16.54;100.00;100039.19;5074248;28;20036;-73
2023/09/01 05:57:17;;;;;;;2.78;1.85;;;;;;;16.57;100.00;100037.13;5074117;28;20491;-72
2023/09/01 05:59:42;;;;;;;3.28;1.88;;;;;;;16.59;100.00;100032.34;5073904;28;20055;-72
2023/09/01 06:02:08;;;;;;;4.85;1.80;;;;;;;16.63;100.00;100033.56;5075650;28;20028;-71
2023/09/01 06:04:33;;;;;;;2.53;1.83;;;;;;;16.66;100.00;100043.88;5073923;28;20133;-72
2023/09/01 06:06:58;;;;;;;3.53;1.98;;;;;;;16.70;100.00;100045.13;5073892;28;20633;-72
2023/09/01 06:09:24;;;;;;;4.18;1.65;;;;;;;16.74;100.00;100043.63;5076007;28;20043;-71
2023/09/01 06:11:49;;;;;;;3.47;1.77;;;;;;;16.76;100.00;100046.97;5088053;28;20486;-73
2023/09/01 06:14:15;;;;;;;3.35;1.77;;;;;;;16.76;100.00;100046.97;5074003;28;20045;-67
2023/09/01 06:16:40;;;;;;;4.82;2.15;;;;;;;16.78;100.00;100047.56;5073807;28;20422;-67
2023/09/01 06:19:05;;;;;;;6.18;3.88;;;;;;;16.81;100.00;100061.38;5072878;28;20174;-68
2023/09/01 06:21:31;;;;;;;5.82;3.00;;;;;;;16.86;100.00;100052.66;5073610;28;20541;-68
2023/09/01 06:23:56;;;;;;;4.93;2.50;;;;;;;16.91;100.00;100057.38;5069008;28;20074;-67
2023/09/01 06:26:22;;;;;;;5.35;2.65;;;;;;;16.94;100.00;100063.13;5053680;28;20112;-67
2023/09/01 06:28:48;;;;;;;4.28;1.95;;;;;;;17.02;100.00;100059.38;5053529;28;20040;-68
2023/09/01 06:31:15;;;;;;;4.97;2.80;;;;;;;17.09;100.00;100060.97;5064413;28;20581;-68
2023/09/01 06:33:42;;;;;;;5.07;2.58;;;;;;;17.14;100.00;100064.84;5073573;28;20491;-67
2023/09/01 06:36:10;;;;;;;4.15;1.70;;;;;;;17.19;100.00;100073.09;5073356;28;20564;-67
2023/09/01 06:38:36;;;;;;;3.38;1.65;;;;;;;17.27;100.00;100070.09;5073392;28;20089;-67
2023/09/01 06:41:03;;;;;;;3.17;1.85;;;;;;;17.31;100.00;100076.69;5073046;28;20036;-67
2023/09/01 06:43:29;;;;;;;5.10;1.70;;;;;;;17.33;100.00;100074.59;5072971;28;20036;-67
2023/09/01 06:45:54;;;;;;;5.40;1.63;;;;;;;17.36;100.00;100069.63;5072704;28;20395;-67
2023/09/01 06:48:20;;;;;;;5.47;1.55;;;;;;;17.40;100.00;100063.78;5073231;28;20052;-67
2023/09/01 06:50:46;;;;;;;3.55;2.08;;;;;;;17.42;100.00;100059.00;5054281;28;20033;-67
2023/09/01 06:53:12;;;;;;;4.40;1.75;;;;;;;17.50;100.00;100067.63;5053142;28;20041;-67
2023/09/01 06:55:37;;;;;;;1.83;1.33;;;;;;;17.53;100.00;100064.47;5053047;28;20091;-67
2023/09/01 06:58:03;;;;;;;2.38;1.45;;;;;;;17.57;100.00;100070.25;5053017;28;20055;-68
2023/09/01 07:00:28;;;;;;;2.65;1.40;;;;;;;17.58;100.00;100061.94;5052811;28;20037;-68
2023/09/01 07:02:54;;;;;;;1.50;1.17;;;;;;;17.64;100.00;100065.59;5065885;28;20052;-68
2023/09/01 07:05:19;;;;;;;3.42;1.70;;;;;;;17.65;100.00;100067.25;5072771;28;20033;-67
2023/09/01 07:07:44;;;;;;;4.13;1.77;;;;;;;17.70;100.00;100069.28;5072844;28;20497;-67
2023/09/01 07:10:10;;;;;;;2.25;1.30;;;;;;;17.76;100.00;100073.81;5072358;28;20048;-67
2023/09/01 07:12:35;;;;;;;3.60;1.30;;;;;;;17.76;100.00;100066.53;5072739;28;20394;-67
2023/09/01 07:15:03;;;;;;;2.38;1.15;;;;;;;17.79;100.00;100073.34;5072560;28;20117;-67
2023/09/01 07:17:29;;;;;;;4.82;1.50;;;;;;;17.80;100.00;100069.59;5072195;28;20041;-67
2023/09/01 07:19:54;;;;;;;2.10;1.27;;;;;;;17.85;100.00;100072.44;5072295;28;20048;-67
2023/09/01 07:22:20;;;;;;;2.97;1.20;;;;;;;17.88;100.00;100072.00;5072509;28;20044;-67
2023/09/01 07:24:45;;;;;;;2.35;1.63;;;;;;;17.90;100.00;100073.41;5072503;28;20040;-67
2023/09/01 07:27:11;;;;;;;2.17;1.45;;;;;;;18.00;100.00;100070.22;5072326;28;20189;-67
2023/09/01 07:29:36;;;;;;;5.03;1.40;;;;;;;18.03;100.00;100056.28;5072247;28;20045;-67
2023/09/01 07:32:03;;;;;;;4.35;1.67;;;;;;;18.09;100.00;100068.84;5072316;28;20060;-68
2023/09/01 07:34:29;;;;;;;1.85;1.15;;;;;;;18.15;100.00;100064.41;5072550;28;20048;-67
2023/09/01 07:36:55;;;;;;;2.08;1.30;;;;;;;18.21;100.00;100070.78;5071917;28;20550;-66
2023/09/01 07:39:20;;;;;;;1.50;1.27;;;;;;;18.30;100.00;100072.09;5068856;28;20028;-67
2023/09/01 07:41:45;;;;;;;2.60;1.40;;;;;;;18.29;100.00;100075.84;5053561;28;20036;-66
2023/09/01 07:44:16;;;;;;;3.10;1.67;;;;;;;18.31;100.00;100077.25;5052343;28;20385;-66
2023/09/01 07:46:44;;;;;;;3.22;1.23;;;;;;;18.34;100.00;100078.69;5052220;28;20041;-67
2023/09/01 07:49:10;;;;;;;2.15;1.20;;;;;;;18.37;100.00;100080.91;5051964;28;20044;-66
2023/09/01 07:51:35;;;;;;;3.35;1.30;;;;;;;18.41;100.00;100077.53;5052156;28;20033;-66
2023/09/01 07:54:01;;;;;;;2.17;1.20;;;;;;;18.43;100.00;100078.13;5052225;28;20037;-66
2023/09/01 07:56:26;;;;;;;2.22;1.10;;;;;;;18.48;100.00;100074.75;5051754;28;20037;-65
2023/09/01 07:58:52;;;;;;;2.55;1.27;;;;;;;18.53;100.00;100074.91;5051991;28;20045;-66
2023/09/01 08:01:17;;;;;;;2.13;1.25;;;;;;;18.55;100.00;100072.78;5051915;28;20068;-67
2023/09/01 08:03:42;;;;;;;2.10;1.40;;;;;;;18.63;100.00;100080.53;5052050;28;20641;-66
2023/09/01 08:06:08;;;;;;;5.57;1.60;;;;;;;18.70;100.00;100086.69;5052339;28;20083;-66
2023/09/01 08:08:33;;;;;;;4.47;1.63;;;;;;;18.77;100.00;100085.78;5051848;28;20468;-66
2023/09/01 08:10:58;;;;;;;4.15;1.40;;;;;;;18.88;100.00;100082.28;5051673;28;20094;-66
2023/09/01 08:13:26;;;;;;;2.60;1.30;;;;;;;18.96;100.00;100084.66;5050700;28;20483;-66
2023/09/01 08:15:51;;;;;;;2.50;1.45;;;;;;;19.04;100.00;100087.03;5051843;28;20064;-66
2023/09/01 08:18:16;;;;;;;3.35;1.15;;;;;;;19.13;100.00;100082.91;5051779;28;20033;-67
2023/09/01 08:20:42;;;;;;;2.58;1.63;;;;;;;19.23;100.00;100093.97;5051550;28;20480;-66
2023/09/01 08:23:09;;;;;;;1.55;1.20;;;;;;;19.34;100.00;100086.91;5051791;28;20116;-66
2023/09/01 08:25:35;;;;;;;1.67;1.10;;;;;;;19.46;100.00;100086.94;5051792;28;20116;-66
2023/09/01 08:28:02;;;;;;;4.18;1.75;;;;;;;19.52;100.00;100100.31;5051815;28;20065;-67
2023/09/01 08:30:28;;;;;;;3.35;1.25;;;;;;;19.58;100.00;100105.88;5051294;28;20045;-67
2023/09/01 08:32:53;;;;;;;2.33;1.30;;;;;;;19.60;100.00;100093.75;5051610;28;20067;-66
2023/09/01 08:35:19;;;;;;;4.45;1.10;;;;;;;19.61;100.00;100097.28;5051557;28;20056;-67
2023/09/01 08:37:44;;;;;;;2.35;1.08;;;;;;;19.67;100.00;100091.75;5064738;28;20029;-67
2023/09/01 08:40:10;;;;;;;2.85;1.10;;;;;;;19.71;100.00;100094.81;5069817;28;20559;-67
2023/09/01 08:42:55;;;;;;;1.67;1.20;;;;;;;19.76;100.00;100090.34;5071433;28;20105;-66
2023/09/01 08:45:21;;;;;;;1.40;0.98;;;;;;;19.92;100.00;100098.78;5071512;28;20040;-67
2023/09/01 08:47:48;;;;;;;1.63;1.20;;;;;;;19.90;100.00;100090.91;5071385;28;20098;-66
2023/09/01 08:50:15;;;;;;;1.73;0.90;;;;;;;19.91;100.00;100100.66;5071119;28;20048;-66
2023/09/01 08:52:42;;;;;;;1.42;1.13;;;;;;;19.96;100.00;100099.97;5071583;28;20048;-67
2023/09/01 08:55:08;;;;;;;2.17;1.30;;;;;;;19.93;100.00;100093.13;5071472;28;20127;-66
2023/09/01 08:57:33;;;;;;;5.55;1.33;;;;;;;19.97;100.00;100101.59;5071482;28;20115;-66
2023/09/01 08:59:58;;;;;;;1.42;1.00;;;;;;;19.96;100.00;100099.97;5071163;28;20049;-67
2023/09/01 09:02:24;;;;;;;3.22;1.00;;;;;;;19.97;100.00;100107.81;5071361;28;20036;-67
2023/09/01 09:04:49;;;;;;;3.33;1.10;;;;;;;20.00;100.00;100103.81;5071465;28;20036;-66
2023/09/01 09:07:20;;;;;;;1.50;1.00;;;;;;;19.96;100.00;100103.47;5070501;28;20028;-66
2023/09/01 09:09:56;;;;;;;1.77;0.90;;;;;;;19.94;100.00;100096.66;5074875;28;20510;-66
2023/09/01 09:12:23;;;;;;;1.38;1.02;;;;;;;19.97;100.00;100105.13;5075073;28;20086;-67
2023/09/01 09:14:52;;;;;;;2.53;1.03;;;;;;;19.94;100.00;100108.28;5075107;28;20066;-66
2023/09/01 09:17:21;;;;;;;2.20;1.00;;;;;;;19.99;100.00;100102.16;5074831;28;20037;-66
2023/09/01 09:19:54;;;;;;;1.38;0.98;;;;;;;20.03;100.00;100103.34;5074823;28;20135;-67
2023/09/01 09:22:20;;;;;;;1.13;0.90;;;;;;;20.06;100.00;100102.84;5074784;28;20404;-66
2023/09/01 09:24:46;;;;;;;1.27;1.00;;;;;;;20.10;100.00;100109.44;5074852;28;20101;-66
2023/09/01 09:27:16;;;;;;;1.65;0.93;;;;;;;20.18;100.00;100100.94;5074769;28;20483;-66
2023/09/01 09:29:42;;;;;;;1.52;1.08;;;;;;;20.27;100.00;100107.59;5074549;28;20036;-66
2023/09/01 09:32:21;;;;;;;2.30;0.80;;;;;;;20.40;100.00;100106.50;5074561;28;20051;-66
2023/09/01 09:35:10;;;;;;;1.60;0.82;;;;;;;20.45;100.00;100108.53;5074817;28;20391;-66
2023/09/01 09:37:37;;;;;;;2.20;1.00;;;;;;;20.59;100.00;100104.47;5074661;28;20484;-66
2023/09/01 09:40:17;;;;;;;4.35;1.10;;;;;;;20.65;99.22;100105.38;5074390;28;20102;-66
2023/09/01 09:42:46;;;;;;;1.17;0.82;;;;;;;20.81;98.46;100105.44;5074543;28;20101;-66
2023/09/01 09:45:26;;;;;;;2.42;1.20;;;;;;;20.79;100.00;100115.66;5074421;28;20041;-65
2023/09/01 09:47:54;;;;;;;1.65;1.05;;;;;;;20.86;100.00;100116.34;5074472;28;20082;-66
2023/09/01 09:50:20;;;;;;;;;;;;;;;20.95;94.59;100113.25;5074661;28;20041;-66
2023/09/01 09:52:50;;;;;;;2.15;1.17;;;;;;;20.92;92.58;100109.13;5074400;28;19916;-65
2023/09/01 09:55:43;;;;;;;1.30;1.00;;;;;;;20.97;93.49;100102.97;5074261;28;20052;-65
2023/09/01 09:58:09;;;;;;;2.88;1.27;;;;;;;21.00;92.46;100113.34;5069865;28;20574;-65
2023/09/01 10:00:44;;;;;;;2.05;1.20;;;;;;;21.02;94.03;100113.91;5073967;28;20119;-65
2023/09/01 10:03:09;;;;;;;1.60;1.10;;;;;;;21.08;93.01;100108.31;5074219;28;20119;-66
2023/09/01 10:05:35;;;;;;;3.13;1.38;;;;;;;21.13;92.84;100110.31;5074057;28;20048;-65
2023/09/01 10:08:06;;;;;;;1.23;0.93;;;;;;;21.19;91.28;100106.63;5074195;28;20487;-65
2023/09/01 10:10:33;;;;;;;1.30;0.80;;;;;;;21.27;91.83;100110.78;5073770;28;20044;-65
2023/09/01 10:13:02;;;;;;;1.92;1.00;;;;;;;21.34;89.97;100104.16;5073998;28;20036;-65
2023/09/01 10:15:29;;;;;;;2.35;1.20;;;;;;;21.50;89.28;100107.91;5073797;28;20097;-64
2023/09/01 10:17:58;;;;;;;2.20;1.20;;;;;;;21.63;88.63;100104.03;5073810;28;20040;-65
2023/09/01 10:20:23;;;;;;;2.17;1.27;;;;;;;21.68;87.58;100096.81;5073554;28;20052;-64
2023/09/01 10:22:48;;;;;;;2.63;0.90;;;;;;;21.76;86.87;100098.25;5073937;28;20494;-66
2023/09/01 10:25:16;;;;;;;1.92;1.00;;;;;;;22.11;84.22;100097.94;5073838;28;20031;-64
2023/09/01 10:28:00;;;;;;;;;;;;;;;22.37;82.52;100101.78;5074213;28;20094;-64
2023/09/01 10:30:27;;;;;;;2.72;1.15;;;;;;;22.47;83.07;100099.16;5073358;28;19916;-65
2023/09/01 10:33:21;;;;;;;1.75;1.15;;;;;;;22.63;81.09;100099.34;5073700;28;20040;-65
2023/09/01 10:35:51;;;;;;;1.40;0.93;;;;;;;22.71;79.92;100093.44;5064122;28;20045;-65
2023/09/01 10:38:40;;;;;;;1.45;1.02;;;;;;;22.68;79.44;100093.94;5073533;28;20515;-64
2023/09/01 10:41:06;;;;;;;2.25;1.10;;;;;;;22.64;81.93;100100.97;5073122;28;20122;-65
2023/09/01 10:43:35;;;;;;;1.98;1.30;;;;;;;22.60;82.05;100099.84;5073405;28;20036;-65
2023/09/01 10:46:12;;;;;;;2.08;1.10;;;;;;;22.48;82.42;100103.50;5073164;28;20028;-65
2023/09/01 10:48:48;;;;;;;2.22;1.30;;;;;;;22.32;83.78;100096.28;5073193;28;20065;-65
2023/09/01 10:51:18;;;;;;;1.35;1.10;;;;;;;22.29;84.65;100096.78;5072915;28;20391;-65
2023/09/01 10:53:45;;;;;;;3.38;1.40;;;;;;;22.33;83.97;100105.25;5073154;28;20119;-65
2023/09/01 10:56:15;;;;;;;3.55;0.95;;;;;;;22.43;80.37;100103.47;5073117;28;20115;-65
2023/09/01 10:58:43;;;;;;;1.85;1.00;;;;;;;22.65;80.77;100098.00;5073064;28;20028;-65
2023/09/01 11:01:33;;;;;;;1.20;0.90;;;;;;;23.06;79.11;100101.13;5072961;28;20441;-65
2023/09/01 11:04:22;;;;;;;1.70;1.00;;;;;;;23.21;80.93;100095.81;5073001;28;20040;-65
2023/09/01 11:06:56;;;;;;;2.05;1.02;;;;;;;23.21;78.12;100103.97;5072688;28;20038;-65
2023/09/01 11:09:45;;;;;;;1.38;1.00;;;;;;;23.10;77.80;100094.09;5072636;28;20047;-65
2023/09/01 11:12:12;;;;;;;2.10;1.10;;;;;;;23.52;75.94;100093.31;5063330;28;20055;-65
2023/09/01 11:14:51;;;;;;;1.73;1.13;;;;;;;23.55;75.79;100092.78;5072788;28;20028;-65
2023/09/01 11:17:17;;;;;;;2.35;1.38;;;;;;;24.22;72.36;100094.78;5072799;28;20467;-65
2023/09/01 11:19:48;;;;;;;2.00;1.05;;;;;;;25.04;70.92;100098.53;5072480;28;20122;-65
2023/09/01 11:22:14;;;;;;;1.48;1.00;;;;;;;25.57;67.91;100085.41;5072652;28;20032;-66
2023/09/01 11:24:40;;;;;;;1.75;1.10;;;;;;;25.92;64.59;100084.50;5072676;28;20383;-65
2023/09/01 11:27:06;;;;;;;1.05;0.80;;;;;;;26.06;60.18;100090.16;5072521;28;20033;-65
2023/09/01 11:29:31;;;;;;;1.52;1.00;;;;;;;26.58;59.60;100088.00;5072148;28;20037;-66
2023/09/01 11:31:56;;;;;;;3.03;1.45;;;;;;;26.93;58.04;100086.94;5071965;28;20055;-64
2023/09/01 11:34:22;;;;;;;1.50;0.95;;;;;;;26.54;58.71;100086.94;5072370;28;20131;-64
2023/09/01 11:36:49;;;;;;;2.20;0.73;;;;;;;26.47;59.39;100084.53;5072370;28;20032;-64
2023/09/01 11:39:16;;;;;;;2.65;1.20;;;;;;;26.94;55.56;100080.41;5072078;28;20033;-64
2023/09/01 11:41:42;;;;;;;4.65;1.17;;;;;;;27.27;57.02;100096.00;5072308;28;20013;-64
2023/09/01 11:44:08;;;;;;;1.42;0.93;;;;;;;27.45;55.79;100093.63;5072270;28;20566;-65
2023/09/01 11:46:36;;;;;;;1.63;1.02;;;;;;;27.67;53.30;100083.00;5072094;28;20128;-65
2023/09/01 11:49:03;;;;;;;1.15;0.90;;;;;;;27.61;52.64;100070.47;5070966;28;20070;-65
2023/09/01 11:51:30;;;;;;;1.08;0.80;;;;;;;27.39;54.58;100086.59;5072075;28;20033;-65
2023/09/01 11:53:56;;;;;;;;;;;;;;;27.61;53.59;100069.66;5072551;28;20045;-63
2023/09/01 11:56:22;;;;;;;1.47;0.97;;;;;;;27.09;57.62;100076.75;5072234;28;19916;-65
2023/09/01 11:58:56;;;;;;;1.25;0.80;;;;;;;26.93;55.89;100081.47;5072085;28;20071;-65
2023/09/01 12:01:24;;;;;;;1.48;0.88;;;;;;;27.34;55.88;100067.50;5071876;28;20082;-65
2023/09/01 12:04:04;;;;;;;1.02;0.77;;;;;;;27.64;54.96;100075.34;5072158;28;20111;-65
2023/09/01 12:06:30;;;;;;;1.10;0.80;;;;;;;28.10;55.01;100080.31;5071938;28;20099;-66
2023/09/01 12:09:16;;;;;;;2.80;0.90;;;;;;;27.83;53.07;100072.72;5071962;28;20032;-66
2023/09/01 12:11:55;;;;;;;3.90;0.87;;;;;;;27.33;55.07;100076.81;5070655;28;20102;-65
2023/09/01 12:14:27;;;;;;;1.10;0.82;;;;;;;26.73;55.11;100085.16;5071918;28;20051;-66
2023/09/01 12:16:53;;;;;;;2.05;0.82;;;;;;;26.34;56.76;100079.66;5055052;28;20122;-66
2023/09/01 12:19:23;;;;;;;1.48;0.77;;;;;;;25.74;58.94;100089.72;5051772;28;20041;-65
2023/09/01 12:21:49;;;;;;;1.02;0.73;;;;;;;25.31;60.76;100094.72;5051726;28;20126;-66
2023/09/01 12:24:15;;;;;;;1.92;0.73;;;;;;;24.88;62.38;100081.31;5051715;28;20546;-66
2023/09/01 12:26:40;;;;;;;1.70;0.90;;;;;;;24.61;64.02;100081.56;5051674;28;20033;-65
2023/09/01 12:29:06;;;;;;;1.15;0.82;;;;;;;24.60;64.00;100088.09;5051467;28;20048;-65
2023/09/01 12:31:31;;;;;;;1.33;0.85;;;;;;;24.57;65.73;100077.72;5051668;28;20033;-65
2023/09/01 12:33:56;;;;;;;0.95;0.70;;;;;;;24.29;66.23;100084.44;5051808;28;20041;-66
2023/09/01 12:36:22;;;;;;;1.00;0.80;;;;;;;24.12;68.08;100091.19;5051535;28;20040;-65
2023/09/01 12:38:48;;;;;;;2.47;0.93;;;;;;;24.29;68.38;100089.91;5051642;28;20677;-65
2023/09/01 12:41:13;;;;;;;0.98;0.88;;;;;;;24.40;68.13;100098.13;5051419;28;20071;-65
2023/09/01 12:43:38;;;;;;;2.08;1.20;;;;;;;24.51;67.73;100091.59;5054395;28;20119;-65
2023/09/01 12:46:05;;;;;;;1.95;1.00;;;;;;;24.70;68.80;100094.66;5055609;28;20120;-65
2023/09/01 12:48:31;;;;;;;2.35;1.00;;;;;;;24.73;67.52;100091.41;5055587;28;20041;-65
2023/09/01 12:50:56;;;;;;;1.35;1.00;;;;;;;24.81;66.32;100090.84;5055301;28;20480;-65
2023/09/01 12:53:22;;;;;;;1.45;1.10;;;;;;;24.75;66.34;100090.03;5055563;28;20124;-65
2023/09/01 12:55:47;;;;;;;1.83;0.90;;;;;;;24.68;65.56;100094.09;5055373;28;20112;-66
2023/09/01 12:58:14;;;;;;;2.10;1.00;;;;;;;24.47;67.02;100099.50;5055225;28;20507;-65
2023/09/01 13:00:39;;;;;;;2.07;1.03;;;;;;;24.33;68.79;100103.81;5055216;28;20062;-66
2023/09/01 13:03:05;;;;;;;1.38;1.20;;;;;;;24.19;70.87;100103.47;5055043;28;20049;-66
2023/09/01 13:05:31;;;;;;;2.28;1.10;;;;;;;24.03;72.63;100101.78;5055230;28;20044;-66
2023/09/01 13:07:58;;;;;;;1.20;1.00;;;;;;;23.92;73.65;100094.63;5055147;28;20041;-66
2023/09/01 13:10:24;;;;;;;2.72;1.25;;;;;;;23.68;73.17;100102.41;5055000;28;20041;-66
2023/09/01 13:12:49;;;;;;;1.60;1.10;;;;;;;23.62;74.39;100098.84;5055208;28;20090;-64
2023/09/01 13:15:15;;;;;;;2.13;1.02;;;;;;;23.59;75.31;100090.34;5055089;28;20044;-66
2023/09/01 13:17:42;;;;;;;1.67;1.10;;;;;;;23.64;77.63;100101.28;5055066;28;20194;-65
2023/09/01 13:20:08;;;;;;;1.77;1.00;;;;;;;23.60;76.38;100100.13;5054659;28;20032;-65
2023/09/01 13:22:34;;;;;;;1.13;0.90;;;;;;;23.68;74.16;100086.09;5055091;28;20267;-66
2023/09/01 13:24:59;;;;;;;1.98;1.17;;;;;;;24.34;72.31;100095.38;5054943;28;20154;-66
2023/09/01 13:27:26;;;;;;;2.22;0.90;;;;;;;25.11;66.65;100098.25;5054773;28;20559;-66
2023/09/01 13:29:51;;;;;;;1.60;0.98;;;;;;;26.07;62.91;100093.72;5054603;28;20126;-67
2023/09/01 13:32:17;;;;;;;2.67;1.10;;;;;;;26.93;57.82;100098.72;5054752;28;20072;-67
2023/09/01 13:34:42;;;;;;;1.25;0.80;;;;;;;27.36;54.13;100098.91;5055051;28;20041;-67
2023/09/01 13:37:11;;;;;;;1.63;0.85;;;;;;;27.94;53.79;100093.38;5054723;28;20036;-67
2023/09/01 13:39:38;;;;;;;0.88;0.70;;;;;;;28.26;52.48;100089.16;5054337;28;20479;-68
2023/09/01 13:42:03;;;;;;;1.20;0.83;;;;;;;27.91;52.85;100087.66;5054656;28;20041;-59
2023/09/01 13:44:29;;;;;;;1.90;0.90;;;;;;;27.16;54.28;100091.69;5054455;28;20048;-59
2023/09/01 13:46:55;;;;;;;1.85;0.82;;;;;;;26.55;58.18;100094.06;5054466;28;20036;-58
2023/09/01 13:49:21;;;;;;;2.47;1.10;;;;;;;25.92;58.06;100089.94;5058497;28;20071;-58
2023/09/01 13:51:46;;;;;;;1.77;0.90;;;;;;;25.46;61.31;100085.69;5074476;28;20035;-60
2023/09/01 13:54:12;;;;;;;1.15;0.80;;;;;;;25.13;64.51;100087.91;5073856;28;20040;-59
2023/09/01 13:56:37;;;;;;;1.75;1.00;;;;;;;24.79;67.48;100085.69;5074236;28;20143;-60
2023/09/01 13:59:03;;;;;;;1.10;0.90;;;;;;;24.52;67.41;100091.38;5074030;28;20048;-61
2023/09/01 14:01:28;;;;;;;2.38;0.82;;;;;;;24.12;68.41;100080.31;5074422;28;20116;-60
2023/09/01 14:03:53;;;;;;;2.55;0.95;;;;;;;23.98;69.45;100091.66;5074268;28;20036;-60
2023/09/01 14:06:19;;;;;;;3.28;1.60;;;;;;;23.82;71.35;100073.66;5074129;28;20036;-60
2023/09/01 14:08:44;;;;;;;2.03;0.98;;;;;;;23.88;72.10;100079.94;5074090;28;20036;-60
2023/09/01 14:11:10;;;;;;;2.10;0.80;;;;;;;23.90;72.05;100073.16;5073762;28;20407;-59
2023/09/01 14:13:35;;;;;;;1.48;0.95;;;;;;;23.93;73.81;100069.91;5074085;28;20127;-61
2023/09/01 14:16:01;;;;;;;1.02;0.85;;;;;;;24.11;72.77;100076.75;5073890;28;20039;-61
2023/09/01 14:18:26;;;;;;;1.38;0.90;;;;;;;24.12;73.63;100070.22;5073905;28;20456;-59
2023/09/01 14:20:54;;;;;;;0.88;0.70;;;;;;;24.19;71.77;100079.00;5073517;28;20550;-62
2023/09/01 14:23:20;;;;;;;1.05;0.80;;;;;;;24.25;72.73;100075.19;5073935;28;20052;-60
2023/09/01 14:25:50;;;;;;;1.77;0.90;;;;;;;24.30;70.96;100077.09;5073671;28;20082;-61
2023/09/01 14:28:16;;;;;;;1.52;0.95;;;;;;;24.42;71.38;100075.00;5073753;28;20051;-60
2023/09/01 14:30:42;;;;;;;1.55;0.90;;;;;;;24.40;72.09;100076.34;5073345;28;20068;-61
2023/09/01 14:33:08;;;;;;;1.10;0.80;;;;;;;24.47;71.00;100079.63;5073600;28;20102;-60
2023/09/01 14:35:33;;;;;;;2.17;1.10;;;;;;;24.36;71.15;100073.34;5073520;28;20380;-60
2023/09/01 14:37:59;;;;;;;1.08;0.80;;;;;;;24.30;71.21;100077.09;5073438;28;20040;-61
2023/09/01 14:40:24;;;;;;;2.25;1.10;;;;;;;24.21;70.17;100081.44;5073122;28;20044;-60
2023/09/01 14:42:50;;;;;;;2.05;1.15;;;;;;;24.06;69.67;100072.16;5073411;28;20021;-60
2023/09/01 14:45:16;;;;;;;0.75;0.60;;;;;;;24.02;69.00;100081.09;5073278;28;20060;-60
2023/09/01 14:47:43;;;;;;;2.45;0.90;;;;;;;23.95;70.25;100073.19;5073286;28;20040;-60
2023/09/01 14:50:16;;;;;;;1.02;0.75;;;;;;;24.10;69.81;100077.84;5072995;28;20372;-60
2023/09/01 14:52:41;;;;;;;1.48;0.80;;;;;;;24.19;72.18;100078.16;5073117;28;20068;-60
2023/09/01 14:55:07;;;;;;;0.57;0.55;;;;;;;24.36;71.76;100076.06;5073067;28;20120;-60
2023/09/01 14:57:32;;;;;;;0.90;0.63;;;;;;;24.35;71.42;100079.88;5073053;28;20491;-60
2023/09/01 14:59:58;;;;;;;2.08;1.23;;;;;;;24.30;70.18;100077.09;5072835;28;20032;-61
2023/09/01 15:02:23;;;;;;;1.40;0.90;;;;;;;24.33;68.49;100074.72;5072934;28;20174;-61
2023/09/01 15:04:48;;;;;;;1.10;0.73;;;;;;;24.35;68.54;100075.25;5072305;28;20044;-61
2023/09/01 15:07:14;;;;;;;1.40;0.70;;;;;;;24.45;67.71;100071.75;5072557;28;20059;-59
2023/09/01 15:09:39;;;;;;;0.80;0.80;;;;;;;24.42;66.54;100075.00;5072570;28;20044;-59
2023/09/01 15:12:05;;;;;;;1.20;0.68;;;;;;;24.33;65.46;100073.88;5072695;28;20094;-61
2023/09/01 15:14:30;;;;;;;1.55;0.88;;;;;;;24.30;66.85;100080.63;5072760;28;20044;-58
2023/09/01 15:16:56;;;;;;;1.40;0.65;;;;;;;24.29;66.99;100076.28;5072529;28;20056;-60
2023/09/01 15:19:21;;;;;;;0.80;0.55;;;;;;;24.18;68.64;100068.34;5072346;28;20040;-60
2023/09/01 15:21:46;;;;;;;1.52;0.60;;;;;;;24.17;69.65;100077.59;5072446;28;20033;-58
2023/09/01 15:24:12;;;;;;;1.13;0.80;;;;;;;24.12;67.90;100083.84;5072435;28;20032;-59
2023/09/01 15:26:37;;;;;;;2.05;0.80;;;;;;;24.08;67.39;100069.97;5072610;28;20504;-59
2023/09/01 15:29:03;;;;;;;0.82;0.60;;;;;;;24.00;68.09;100073.22;5072159;28;20064;-61
2023/09/01 15:31:29;;;;;;;1.30;0.70;;;;;;;23.94;68.04;100060.66;5072351;28;20590;-60
2023/09/01 15:33:55;;;;;;;0.60;0.52;;;;;;;23.97;68.29;100067.47;5072419;28;20063;-60
2023/09/01 15:36:21;;;;;;;2.50;1.02;;;;;;;24.03;70.10;100066.41;5072258;28;20032;-60
2023/09/01 15:38:48;;;;;;;1.65;0.70;;;;;;;24.05;68.73;100065.03;5072253;28;20060;-60
2023/09/01 15:41:13;;;;;;;0.82;0.60;;;;;;;24.03;67.37;100053.63;5072126;28;20048;-60
2023/09/01 15:43:39;;;;;;;1.48;1.10;;;;;;;24.03;69.06;100059.06;5072204;28;20058;-60